Time;durP1;ratioP1;P1;durP2;ratioP2;P2;SDS_P1;SDS_P2;PMS_P1;PMS_P2;Temp;Humidity;BMP_temperature;BMP_pressure;BME280_temperature;BME280_humidity;BME280_pressure;Samples;Min_cycle;Max_cycle;Signal;HPM_P1;HPM_P2
2024/03/10 00:00:52;;;;;;;17.30;7.23;;;;;;;;;;5028325;28;20369;-70
2024/03/10 00:03:17;;;;;;;19.47;7.60;;;;;;;;;;5033101;28;20315;-70
2024/03/10 00:05:43;;;;;;;14.97;7.57;;;;;;;;;;5030249;28;20260;-70
2024/03/10 00:08:08;;;;;;;22.15;7.55;;;;;;;;;;5027021;28;20256;-70
2024/03/10 00:10:37;;;;;;;15.17;8.03;;;;;;;;;;5027313;28;20396;-70
2024/03/10 00:13:03;;;;;;;18.98;9.25;;;;;;;;;;5026827;28;20623;-70
2024/03/10 00:15:30;;;;;;;18.42;8.07;;;;;;;;;;5030449;28;20033;-70
2024/03/10 00:17:55;;;;;;;17.10;8.25;;;;;;;;;;5034249;28;20079;-69
2024/03/10 00:20:20;;;;;;;17.08;8.20;;;;;;;;;;5029978;28;21403;-70
2024/03/10 00:22:47;;;;;;;15.63;7.20;;;;;;;;;;5026773;28;20108;-69
2024/03/10 00:25:13;;;;;;;17.38;8.10;;;;;;;;;;5026210;28;20033;-70
2024/03/10 00:27:38;;;;;;;16.08;8.02;;;;;;;;;;5031962;28;20033;-70
2024/03/10 00:30:07;;;;;;;17.57;8.80;;;;;;;;;;5028286;28;20026;-70
2024/03/10 00:32:33;;;;;;;16.20;8.25;;;;;;;;;;5029151;28;20407;-69
2024/03/10 00:34:58;;;;;;;13.40;6.93;;;;;;;;;;5031137;28;20603;-69
2024/03/10 00:37:23;;;;;;;19.85;8.23;;;;;;;;;;5028714;28;20256;-69
2024/03/10 00:39:49;;;;;;;17.92;7.78;;;;;;;;;;5019623;28;20025;-70
2024/03/10 00:42:14;;;;;;;19.93;8.33;;;;;;;;;;5027850;28;20025;-70
2024/03/10 00:44:39;;;;;;;17.20;7.87;;;;;;;;;;5026671;28;20289;-69
2024/03/10 00:47:04;;;;;;;11.17;5.17;;;;;;;;;;5036914;28;20268;-70
2024/03/10 00:49:29;;;;;;;16.67;7.38;;;;;;;;;;5033728;28;20340;-69
2024/03/10 00:51:55;;;;;;;17.13;7.63;;;;;;;;;;5028913;28;20104;-70
2024/03/10 00:54:20;;;;;;;14.93;6.35;;;;;;;;;;5028589;28;20257;-70
2024/03/10 00:56:46;;;;;;;16.20;6.75;;;;;;;;;;5031772;28;20012;-69
2024/03/10 00:59:11;;;;;;;16.30;7.50;;;;;;;;;;5030269;28;20018;-70
2024/03/10 01:01:39;;;;;;;20.63;8.17;;;;;;;;;;5022205;28;20021;-70
2024/03/10 01:04:04;;;;;;;16.70;8.68;;;;;;;;;;5031931;28;20276;-70
2024/03/10 01:06:29;;;;;;;12.87;6.43;;;;;;;;;;5030944;28;20022;-70
2024/03/10 01:08:54;;;;;;;16.47;7.43;;;;;;;;;;5027947;28;20923;-69
2024/03/10 01:11:19;;;;;;;15.40;6.70;;;;;;;;;;5028445;28;20256;-70
2024/03/10 01:13:46;;;;;;;15.00;7.13;;;;;;;;;;5030034;28;20287;-70
2024/03/10 01:16:11;;;;;;;14.00;6.55;;;;;;;;;;5029891;28;20013;-69
2024/03/10 01:18:37;;;;;;;18.93;6.97;;;;;;;;;;5030916;28;20396;-69
2024/03/10 01:21:02;;;;;;;19.30;6.93;;;;;;;;;;5029251;28;20260;-71
2024/03/10 01:23:27;;;;;;;17.15;7.53;;;;;;;;;;5028054;28;20024;-70
2024/03/10 01:25:53;;;;;;;16.43;7.13;;;;;;;;;;5030378;28;20013;-70
2024/03/10 01:28:18;;;;;;;14.88;6.78;;;;;;;;;;5029941;28;20263;-70
2024/03/10 01:30:43;;;;;;;20.15;7.95;;;;;;;;;;5032991;28;20012;-70
2024/03/10 01:33:08;;;;;;;15.20;7.73;;;;;;;;;;5029860;28;20032;-69
2024/03/10 01:35:34;;;;;;;21.13;7.43;;;;;;;;;;5025080;28;20718;-70
2024/03/10 01:37:59;;;;;;;16.63;6.23;;;;;;;;;;5028715;28;20276;-69
2024/03/10 01:40:24;;;;;;;15.73;7.47;;;;;;;;;;5028663;28;20287;-69
2024/03/10 01:42:56;;;;;;;16.83;7.57;;;;;;;;;;5030951;28;20776;-69
2024/03/10 01:45:21;;;;;;;16.42;6.43;;;;;;;;;;5028901;28;20272;-70
2024/03/10 01:47:47;;;;;;;14.13;6.55;;;;;;;;;;5032238;28;20017;-69
2024/03/10 01:50:13;;;;;;;20.58;7.28;;;;;;;;;;5027802;28;20446;-70
2024/03/10 01:52:38;;;;;;;15.27;6.13;;;;;;;;;;5031546;28;20032;-70
2024/03/10 01:55:06;;;;;;;15.38;6.07;;;;;;;;;;5029739;28;20053;-69
2024/03/10 01:57:31;;;;;;;15.80;7.55;;;;;;;;;;5029312;28;20496;-69
2024/03/10 01:59:57;;;;;;;15.73;6.95;;;;;;;;;;5024879;28;20053;-70
2024/03/10 02:02:22;;;;;;;13.52;6.50;;;;;;;;;;5024937;28;20555;-70
2024/03/10 02:04:49;;;;;;;12.93;6.95;;;;;;;;;;5032320;28;20009;-70
2024/03/10 02:07:16;;;;;;;17.52;6.85;;;;;;;;;;5023984;28;20061;-70
2024/03/10 02:09:44;;;;;;;14.75;6.35;;;;;;;;;;5024566;28;20032;-70
2024/03/10 02:12:10;;;;;;;14.68;6.70;;;;;;;;;;5030412;28;20013;-70
2024/03/10 02:14:37;;;;;;;15.10;6.60;;;;;;;;;;5030699;28;20373;-70
2024/03/10 02:17:03;;;;;;;13.18;6.38;;;;;;;;;;5028196;28;20044;-70
2024/03/10 02:19:29;;;;;;;14.80;6.63;;;;;;;;;;5029287;28;20021;-70
2024/03/10 02:21:55;;;;;;;16.25;7.00;;;;;;;;;;5028423;28;20511;-70
2024/03/10 02:24:25;;;;;;;14.23;6.80;;;;;;;;;;5030545;28;20025;-70
2024/03/10 02:26:51;;;;;;;19.70;7.47;;;;;;;;;;5027709;28;20033;-70
2024/03/10 02:29:21;;;;;;;12.63;6.15;;;;;;;;;;5027417;28;20021;-70
2024/03/10 02:48:10;;;;;;;13.57;6.30;;;;;;;;;;5021806;28;20087;-69
2024/03/10 02:50:36;;;;;;;20.50;6.72;;;;;;;;;;5029533;28;20105;-70
2024/03/10 02:53:01;;;;;;;14.40;6.70;;;;;;;;;;5027127;28;20064;-70
2024/03/10 02:55:27;;;;;;;12.05;6.07;;;;;;;;;;5025958;28;20381;-70
2024/03/10 02:57:52;;;;;;;13.00;6.07;;;;;;;;;;5033721;28;20025;-69
2024/03/10 03:00:18;;;;;;;11.10;5.00;;;;;;;;;;5031747;28;21067;-70
2024/03/10 03:02:43;;;;;;;11.45;5.82;;;;;;;;;;5028728;28;20033;-70
2024/03/10 03:05:08;;;;;;;14.77;6.32;;;;;;;;;;5033403;28;20014;-69
2024/03/10 03:07:33;;;;;;;16.55;5.75;;;;;;;;;;5027959;28;20045;-70
2024/03/10 03:09:59;;;;;;;12.27;5.90;;;;;;;;;;5037789;28;20018;-69
2024/03/10 03:12:24;;;;;;;10.05;4.75;;;;;;;;;;5023653;28;20457;-70
2024/03/10 03:14:49;;;;;;;16.60;6.05;;;;;;;;;;5029683;28;20029;-70
2024/03/10 03:17:14;;;;;;;12.82;5.13;;;;;;;;;;5024464;28;20025;-69
2024/03/10 03:19:40;;;;;;;8.90;4.60;;;;;;;;;;5024903;28;20038;-70
2024/03/10 03:22:06;;;;;;;11.23;5.05;;;;;;;;;;5026408;28;20256;-69
2024/03/10 03:24:31;;;;;;;9.80;4.90;;;;;;;;;;5030407;28;20044;-69
2024/03/10 03:26:57;;;;;;;11.80;5.30;;;;;;;;;;5031522;28;20450;-70
2024/03/10 03:29:23;;;;;;;13.18;5.25;;;;;;;;;;5024560;28;20263;-70
2024/03/10 03:31:48;;;;;;;11.80;6.00;;;;;;;;;;5033237;28;20032;-70
2024/03/10 03:34:13;;;;;;;12.83;5.70;;;;;;;;;;5028963;28;20484;-69
2024/03/10 03:36:38;;;;;;;14.02;6.75;;;;;;;;;;5031540;28;20271;-70
2024/03/10 03:39:05;;;;;;;12.03;5.93;;;;;;;;;;5029713;28;20033;-70
2024/03/10 03:41:31;;;;;;;10.85;5.32;;;;;;;;;;5029994;28;20705;-70
2024/03/10 03:43:56;;;;;;;12.20;5.43;;;;;;;;;;5028085;28;20108;-70
2024/03/10 03:46:21;;;;;;;11.88;6.20;;;;;;;;;;5031377;28;20384;-70
2024/03/10 03:48:46;;;;;;;9.97;5.30;;;;;;;;;;5030830;28;20680;-70
2024/03/10 03:51:11;;;;;;;13.30;5.82;;;;;;;;;;5030941;28;20303;-70
2024/03/10 03:53:37;;;;;;;12.90;5.73;;;;;;;;;;5031521;28;20167;-70
2024/03/10 03:56:02;;;;;;;10.55;5.03;;;;;;;;;;5031175;28;20244;-69
2024/03/10 03:58:27;;;;;;;14.15;5.72;;;;;;;;;;5031099;28;20083;-70
2024/03/10 04:00:53;;;;;;;12.63;6.15;;;;;;;;;;5023945;28;20022;-70
2024/03/10 04:03:18;;;;;;;11.90;5.45;;;;;;;;;;5031235;28;20052;-70
2024/03/10 04:05:43;;;;;;;10.60;5.40;;;;;;;;;;5032096;28;20028;-70
2024/03/10 04:08:11;;;;;;;12.73;5.33;;;;;;;;;;5032623;28;20052;-71
2024/03/10 04:10:36;;;;;;;12.90;5.38;;;;;;;;;;5026065;28;20353;-70
2024/03/10 04:13:05;;;;;;;13.40;5.57;;;;;;;;;;5031397;28;20451;-70
2024/03/10 04:15:31;;;;;;;7.60;3.28;;;;;;;;;;5029459;28;20017;-71
2024/03/10 04:17:56;;;;;;;10.88;5.18;;;;;;;;;;5031792;28;20049;-70
2024/03/10 04:20:21;;;;;;;11.33;4.93;;;;;;;;;;5029908;28;20083;-70
2024/03/10 04:22:48;;;;;;;11.23;4.93;;;;;;;;;;5032012;28;20345;-69
2024/03/10 04:25:14;;;;;;;7.53;3.33;;;;;;;;;;5032462;28;20743;-70
2024/03/10 04:27:40;;;;;;;9.95;5.30;;;;;;;;;;5031333;28;20018;-70
2024/03/10 04:30:06;;;;;;;5.25;1.92;;;;;;;;;;5029818;28;20468;-70
2024/03/10 04:32:31;;;;;;;4.53;2.38;;;;;;;;;;5029043;28;20373;-69
2024/03/10 04:34:57;;;;;;;9.30;4.72;;;;;;;;;;5028707;28;20025;-70
2024/03/10 04:37:23;;;;;;;9.63;5.10;;;;;;;;;;5030395;28;20017;-69
2024/03/10 04:39:48;;;;;;;8.60;4.07;;;;;;;;;;5028261;28;20017;-69
2024/03/10 04:42:15;;;;;;;2.78;1.73;;;;;;;;;;5026124;28;20022;-70
2024/03/10 04:44:40;;;;;;;8.13;3.20;;;;;;;;;;5030026;28;20036;-70
2024/03/10 04:47:05;;;;;;;12.40;5.20;;;;;;;;;;5030238;28;20476;-70
2024/03/10 04:49:33;;;;;;;12.45;4.68;;;;;;;;;;5026269;28;20280;-70
2024/03/10 04:51:58;;;;;;;9.45;3.60;;;;;;;;;;5028803;28;20040;-69
2024/03/10 04:54:23;;;;;;;12.13;5.07;;;;;;;;;;5030428;28;20022;-70
2024/03/10 04:56:49;;;;;;;7.90;4.30;;;;;;;;;;5030863;28;20480;-70
2024/03/10 04:59:14;;;;;;;7.33;3.47;;;;;;;;;;5024945;28;20299;-70
2024/03/10 05:01:39;;;;;;;8.05;3.92;;;;;;;;;;5026948;28;20260;-69
2024/03/10 05:04:05;;;;;;;9.63;5.10;;;;;;;;;;5031877;28;20018;-70
2024/03/10 05:06:30;;;;;;;4.35;2.45;;;;;;;;;;5027297;28;20268;-70
2024/03/10 05:08:55;;;;;;;9.23;4.50;;;;;;;;;;5027026;28;20049;-70
2024/03/10 05:11:21;;;;;;;9.48;5.28;;;;;;;;;;5026014;28;20262;-69
2024/03/10 05:13:46;;;;;;;10.45;5.25;;;;;;;;;;5031723;28;20527;-70
2024/03/10 05:16:12;;;;;;;8.87;4.07;;;;;;;;;;5030058;28;20424;-70
2024/03/10 05:18:37;;;;;;;9.77;4.35;;;;;;;;;;5029616;28;20248;-69
2024/03/10 05:21:03;;;;;;;10.10;5.20;;;;;;;;;;5025006;28;20021;-70
2024/03/10 05:23:28;;;;;;;10.65;4.95;;;;;;;;;;5029030;28;20044;-69
2024/03/10 05:25:53;;;;;;;9.23;4.80;;;;;;;;;;5030642;28;20017;-70
2024/03/10 05:28:18;;;;;;;10.37;5.07;;;;;;;;;;5028033;28;20018;-70
2024/03/10 05:30:44;;;;;;;10.30;4.83;;;;;;;;;;5024807;28;20260;-70
2024/03/10 05:33:09;;;;;;;10.68;4.75;;;;;;;;;;5030677;28;20270;-71
2024/03/10 05:35:35;;;;;;;10.75;4.80;;;;;;;;;;5022615;28;20632;-71
2024/03/10 05:38:00;;;;;;;9.35;4.50;;;;;;;;;;5023037;28;20075;-70
2024/03/10 05:40:25;;;;;;;12.27;4.53;;;;;;;;;;5027829;28;20188;-69
2024/03/10 05:42:51;;;;;;;10.30;4.85;;;;;;;;;;5029569;28;20657;-70
2024/03/10 05:45:18;;;;;;;11.63;5.53;;;;;;;;;;5029557;28;20021;-70
2024/03/10 05:47:43;;;;;;;8.52;4.57;;;;;;;;;;5023366;28;20024;-70
2024/03/10 05:50:09;;;;;;;8.93;4.57;;;;;;;;;;5023229;28;20022;-70
2024/03/10 05:52:34;;;;;;;10.60;5.23;;;;;;;;;;5021711;28;20029;-69
2024/03/10 05:54:59;;;;;;;15.57;5.23;;;;;;;;;;5024070;28;20279;-70
2024/03/10 05:57:25;;;;;;;9.52;4.68;;;;;;;;;;5027317;28;20300;-69
2024/03/10 05:59:50;;;;;;;8.50;4.20;;;;;;;;;;5026368;28;20021;-69
2024/03/10 06:02:16;;;;;;;10.05;5.20;;;;;;;;;;5027805;28;20393;-71
2024/03/10 06:04:41;;;;;;;10.45;4.80;;;;;;;;;;5026999;28;20453;-70
2024/03/10 06:07:06;;;;;;;9.30;4.88;;;;;;;;;;5021272;28;20101;-70
2024/03/10 06:09:35;;;;;;;10.15;4.80;;;;;;;;;;5025393;28;20384;-71
2024/03/10 06:12:01;;;;;;;11.30;5.30;;;;;;;;;;5020969;28;20041;-70
2024/03/10 06:14:26;;;;;;;10.32;5.45;;;;;;;;;;5028247;28;20467;-70
2024/03/10 06:16:51;;;;;;;14.27;5.10;;;;;;;;;;5027810;28;20117;-69
2024/03/10 06:27:28;;;;;;;9.88;5.00;;;;;;;;;;5028325;28;20102;-70
2024/03/10 06:29:53;;;;;;;14.03;5.90;;;;;;;;;;5021974;28;20505;-69
2024/03/10 06:32:19;;;;;;;9.63;5.07;;;;;;;;;;5028695;28;20264;-70
2024/03/10 06:34:44;;;;;;;10.05;5.88;;;;;;;;;;5022802;28;20252;-70
2024/03/10 06:37:10;;;;;;;15.18;6.70;;;;;;;;;;5029316;28;20024;-69
2024/03/10 06:39:35;;;;;;;11.57;5.53;;;;;;;;;;5025248;28;20056;-69
2024/03/10 06:42:00;;;;;;;11.77;5.53;;;;;;;;;;5033021;28;20025;-70
2024/03/10 06:44:25;;;;;;;13.00;5.82;;;;;;;;;;5020225;28;20291;-70
2024/03/10 06:46:51;;;;;;;13.82;6.32;;;;;;;;;;5025362;28;20103;-69
2024/03/10 06:49:16;;;;;;;11.27;5.17;;;;;;;;;;5029484;28;20025;-69
2024/03/10 06:51:41;;;;;;;12.17;5.33;;;;;;;;;;5030240;28;20363;-69
2024/03/10 06:54:06;;;;;;;13.18;5.40;;;;;;;;;;5032224;28;20256;-69
2024/03/10 06:56:32;;;;;;;8.77;5.07;;;;;;;;;;5032855;28;20017;-69
2024/03/10 06:58:57;;;;;;;13.27;5.88;;;;;;;;;;5028483;28;20775;-70
2024/03/10 07:01:22;;;;;;;10.63;5.17;;;;;;;;;;5029441;28;20476;-69
2024/03/10 07:03:48;;;;;;;10.02;5.15;;;;;;;;;;5030401;28;20586;-69
2024/03/10 07:06:15;;;;;;;11.45;5.05;;;;;;;;;;5035936;28;20052;-70
2024/03/10 07:08:40;;;;;;;13.65;4.95;;;;;;;;;;5030680;28;20022;-69
2024/03/10 07:11:05;;;;;;;13.02;5.38;;;;;;;;;;5030100;28;20013;-69
2024/03/10 07:13:30;;;;;;;12.77;5.32;;;;;;;;;;5024440;28;20076;-70
2024/03/10 07:15:56;;;;;;;13.07;6.55;;;;;;;;;;5027052;28;20017;-69
2024/03/10 07:18:21;;;;;;;13.00;6.03;;;;;;;;;;5020992;28;20030;-70
2024/03/10 07:20:46;;;;;;;14.68;6.63;;;;;;;;;;5023084;28;20031;-69
2024/03/10 07:23:12;;;;;;;9.83;4.93;;;;;;;;;;5027235;28;20036;-69
2024/03/10 07:25:37;;;;;;;12.07;6.40;;;;;;;;;;5029146;28;20592;-70
2024/03/10 07:28:02;;;;;;;12.93;5.43;;;;;;;;;;5028617;28;20033;-70
2024/03/10 07:30:28;;;;;;;11.38;6.18;;;;;;;;;;5027291;28;20349;-70
2024/03/10 07:32:53;;;;;;;12.82;5.32;;;;;;;;;;5030299;28;20060;-70
2024/03/10 07:35:21;;;;;;;13.02;5.88;;;;;;;;;;5025674;28;20022;-70
2024/03/10 07:37:46;;;;;;;9.90;4.82;;;;;;;;;;5030729;28;20155;-70
2024/03/10 07:40:18;;;;;;;10.50;5.87;;;;;;;;;;5029169;28;20096;-70
2024/03/10 07:42:43;;;;;;;12.88;5.95;;;;;;;;;;5021191;28;20264;-70
2024/03/10 07:45:09;;;;;;;12.43;6.10;;;;;;;;;;5026091;28;20018;-70
2024/03/10 07:47:36;;;;;;;16.40;7.47;;;;;;;;;;5030278;28;20045;-70
2024/03/10 07:50:01;;;;;;;14.32;6.25;;;;;;;;;;5020620;28;20021;-70
2024/03/10 07:52:26;;;;;;;14.70;7.10;;;;;;;;;;5030294;28;20028;-70
2024/03/10 07:54:52;;;;;;;13.40;6.27;;;;;;;;;;5029529;28;20022;-69
2024/03/10 07:57:18;;;;;;;12.00;5.63;;;;;;;;;;5030463;28;20347;-69
2024/03/10 07:59:43;;;;;;;11.07;5.30;;;;;;;;;;5027659;28;20164;-69
2024/03/10 08:02:08;;;;;;;12.90;6.27;;;;;;;;;;5023641;28;20272;-70
2024/03/10 08:04:33;;;;;;;11.73;5.63;;;;;;;;;;5030647;28;20790;-70
2024/03/10 08:06:59;;;;;;;12.73;6.05;;;;;;;;;;5030320;28;20409;-70
2024/03/10 08:09:24;;;;;;;17.45;6.60;;;;;;;;;;5026282;28;20024;-70
2024/03/10 08:11:51;;;;;;;11.77;4.73;;;;;;;;;;5018146;28;20422;-69
2024/03/10 08:14:20;;;;;;;11.90;5.82;;;;;;;;;;5021320;28;20287;-70
2024/03/10 08:16:48;;;;;;;11.47;5.33;;;;;;;;;;5021850;28;20403;-70
2024/03/10 08:19:13;;;;;;;12.80;5.60;;;;;;;;;;5033866;28;20029;-69
2024/03/10 08:21:38;;;;;;;9.30;3.83;;;;;;;;;;5023025;28;20399;-69
2024/03/10 08:24:03;;;;;;;15.95;3.40;;;;;;;;;;5035374;28;20032;-69
2024/03/10 08:26:29;;;;;;;15.10;6.32;;;;;;;;;;5028136;28;20305;-69
2024/03/10 08:28:55;;;;;;;10.40;5.37;;;;;;;;;;5019667;28;20025;-70
2024/03/10 08:31:20;;;;;;;16.92;6.85;;;;;;;;;;5025055;28;20252;-70
2024/03/10 08:33:45;;;;;;;12.50;6.43;;;;;;;;;;5028069;28;20029;-70
2024/03/10 08:36:11;;;;;;;9.90;5.40;;;;;;;;;;5028595;28;20026;-70
2024/03/10 08:38:37;;;;;;;8.13;3.83;;;;;;;;;;5024888;28;20022;-70
2024/03/10 08:41:03;;;;;;;11.43;6.32;;;;;;;;;;5025906;28;20033;-70
2024/03/10 08:43:28;;;;;;;14.57;6.50;;;;;;;;;;5029578;28;20075;-70
2024/03/10 08:45:54;;;;;;;12.95;6.28;;;;;;;;;;5018711;28;20026;-69
2024/03/10 08:48:19;;;;;;;10.40;5.07;;;;;;;;;;5016125;28;20496;-70
2024/03/10 08:50:45;;;;;;;4.68;2.63;;;;;;;;;;5014185;28;20113;-69
2024/03/10 08:53:10;;;;;;;11.77;6.20;;;;;;;;;;5019713;28;20061;-70
2024/03/10 08:55:35;;;;;;;13.67;6.53;;;;;;;;;;5029880;28;20014;-71
2024/03/10 08:58:03;;;;;;;14.10;6.23;;;;;;;;;;5022088;28;20855;-70
2024/03/10 09:00:28;;;;;;;12.90;4.95;;;;;;;;;;5033988;28;20267;-71
2024/03/10 09:02:53;;;;;;;11.52;6.43;;;;;;;;;;5024543;28;20030;-70
2024/03/10 09:05:19;;;;;;;9.20;4.65;;;;;;;;;;5022444;28;20018;-71
2024/03/10 09:07:44;;;;;;;11.83;6.63;;;;;;;;;;5030475;28;20013;-70
2024/03/10 09:10:09;;;;;;;11.85;6.47;;;;;;;;;;5020716;28;20059;-70
2024/03/10 09:12:34;;;;;;;11.57;6.90;;;;;;;;;;5023868;28;20033;-70
2024/03/10 09:15:00;;;;;;;13.37;6.83;;;;;;;;;;5023129;28;20020;-70
2024/03/10 09:17:25;;;;;;;10.60;5.68;;;;;;;;;;5027386;28;20714;-70
2024/03/10 09:19:51;;;;;;;11.37;4.83;;;;;;;;;;5027416;28;20669;-70
2024/03/10 09:22:16;;;;;;;14.68;7.07;;;;;;;;;;5015816;28;21159;-70
2024/03/10 09:24:44;;;;;;;9.70;5.45;;;;;;;;;;5023430;28;20038;-70
2024/03/10 09:27:09;;;;;;;14.88;6.80;;;;;;;;;;5011926;28;20022;-70
2024/03/10 09:29:36;;;;;;;13.80;8.00;;;;;;;;;;5015340;28;20365;-70
2024/03/10 09:32:02;;;;;;;12.18;6.45;;;;;;;;;;5025463;28;20018;-70
2024/03/10 09:34:27;;;;;;;12.07;6.78;;;;;;;;;;5015654;28;20048;-70
2024/03/10 09:36:55;;;;;;;12.27;6.40;;;;;;;;;;5034050;28;20029;-70
2024/03/10 09:39:23;;;;;;;10.90;6.30;;;;;;;;;;5033093;28;20034;-70
2024/03/10 09:41:48;;;;;;;9.60;5.93;;;;;;;;;;5014398;28;20029;-70
2024/03/10 09:44:20;;;;;;;10.23;5.93;;;;;;;;;;5020942;28;20531;-70
2024/03/10 09:46:49;;;;;;;8.73;4.43;;;;;;;;;;5034370;28;20392;-70
2024/03/10 09:49:19;;;;;;;11.38;6.47;;;;;;;;;;5019250;28;20032;-71
2024/03/10 09:51:45;;;;;;;10.25;6.38;;;;;;;;;;5026940;28;20071;-70
2024/03/10 09:54:12;;;;;;;12.20;6.25;;;;;;;;;;5028117;28;20093;-70
2024/03/10 09:56:37;;;;;;;10.63;5.85;;;;;;;;;;5035539;28;20021;-70
2024/03/10 09:59:03;;;;;;;9.20;4.90;;;;;;;;;;5023234;28;20022;-70
2024/03/10 10:01:29;;;;;;;15.25;5.95;;;;;;;;;;5021232;28;20493;-70
2024/03/10 10:03:57;;;;;;;10.65;6.20;;;;;;;;;;5017742;28;20029;-70
2024/03/10 10:06:22;;;;;;;11.10;6.93;;;;;;;;;;5020481;28;20040;-70
2024/03/10 10:08:54;;;;;;;14.98;7.57;;;;;;;;;;5023718;28;20400;-71
2024/03/10 10:11:19;;;;;;;12.98;6.38;;;;;;;;;;5040525;28;20369;-70
2024/03/10 10:14:04;;;;;;;13.82;6.82;;;;;;;;;;5024914;28;20032;-71
2024/03/10 10:16:29;;;;;;;12.38;7.32;;;;;;;;;;5043711;28;20029;-70
2024/03/10 10:18:54;;;;;;;12.63;7.47;;;;;;;;;;5024583;28;20029;-70
2024/03/10 10:21:22;;;;;;;11.63;6.90;;;;;;;;;;5037101;28;20101;-70
2024/03/10 10:23:47;;;;;;;12.70;7.10;;;;;;;;;;5032367;28;20036;-70
2024/03/10 10:26:13;;;;;;;11.10;5.60;;;;;;;;;;5029373;28;20018;-70
2024/03/10 10:28:40;;;;;;;10.85;6.35;;;;;;;;;;5023888;28;20033;-70
2024/03/10 10:31:13;;;;;;;10.70;4.93;;;;;;;;;;5024600;28;20021;-70
2024/03/10 10:33:41;;;;;;;10.63;5.95;;;;;;;;;;5029389;28;20072;-70
2024/03/10 10:36:06;;;;;;;11.55;6.25;;;;;;;;;;5020137;28;20080;-70
2024/03/10 10:38:39;;;;;;;14.15;7.45;;;;;;;;;;5016716;28;20030;-70
2024/03/10 10:41:07;;;;;;;10.48;6.80;;;;;;;;;;5018041;28;20040;-70
2024/03/10 10:43:33;;;;;;;12.75;7.30;;;;;;;;;;5017827;28;20168;-70
2024/03/10 10:45:59;;;;;;;13.27;7.35;;;;;;;;;;5012656;28;20014;-70
2024/03/10 10:48:24;;;;;;;13.30;7.78;;;;;;;;;;5022690;28;20027;-70
2024/03/10 10:50:51;;;;;;;10.82;6.30;;;;;;;;;;5016627;28;20476;-70
2024/03/10 10:53:17;;;;;;;14.93;7.03;;;;;;;;;;5012579;28;20025;-70
2024/03/10 10:55:45;;;;;;;13.57;7.57;;;;;;;;;;5017245;28;20489;-70
2024/03/10 10:58:11;;;;;;;14.25;7.30;;;;;;;;;;5010400;28;20018;-70
2024/03/10 11:00:39;;;;;;;11.30;7.13;;;;;;;;;;5025607;28;20061;-71
2024/03/10 11:03:09;;;;;;;14.90;6.38;;;;;;;;;;5013576;28;20022;-71
2024/03/10 11:05:36;;;;;;;13.40;6.15;;;;;;;;;;5026306;28;20112;-70
2024/03/10 11:08:01;;;;;;;12.93;7.82;;;;;;;;;;5027239;28;20021;-70
2024/03/10 11:10:40;;;;;;;12.02;7.22;;;;;;;;;;5014865;28;20033;-70
2024/03/10 11:13:12;;;;;;;14.07;7.43;;;;;;;;;;5020652;28;20049;-70
2024/03/10 11:15:37;;;;;;;11.45;7.05;;;;;;;;;;5020695;28;20035;-70
2024/03/10 11:18:19;;;;;;;14.90;7.22;;;;;;;;;;5031461;28;20104;-70
2024/03/10 11:20:44;;;;;;;12.85;7.57;;;;;;;;;;5018639;28;20445;-70
2024/03/10 11:23:10;;;;;;;11.30;6.35;;;;;;;;;;5022669;28;20064;-70
2024/03/10 11:25:35;;;;;;;9.80;6.38;;;;;;;;;;5024465;28;20718;-71
2024/03/10 11:28:02;;;;;;;12.32;7.45;;;;;;;;;;5021374;28;20022;-70
2024/03/10 11:30:40;;;;;;;15.00;8.27;;;;;;;;;;5025281;28;20013;-70
2024/03/10 11:33:06;;;;;;;11.30;7.10;;;;;;;;;;5021787;28;20040;-70
2024/03/10 11:35:31;;;;;;;14.90;7.82;;;;;;;;;;5038588;28;20472;-70
2024/03/10 11:37:59;;;;;;;13.23;6.53;;;;;;;;;;5041204;28;20021;-70
2024/03/10 11:40:24;;;;;;;15.82;9.40;;;;;;;;;;5041138;28;20120;-70
2024/03/10 11:42:49;;;;;;;44.72;20.17;;;;;;;;;;5040195;28;20539;-70
2024/03/10 11:45:15;;;;;;;15.50;9.38;;;;;;;;;;5027267;28;20026;-70
2024/03/10 11:47:40;;;;;;;13.10;7.70;;;;;;;;;;5024418;28;20025;-70
2024/03/10 11:50:05;;;;;;;11.73;6.37;;;;;;;;;;5031109;28;20021;-70
2024/03/10 11:52:30;;;;;;;15.75;7.45;;;;;;;;;;5031540;28;20616;-70
2024/03/10 11:54:56;;;;;;;13.80;6.83;;;;;;;;;;5030281;28;20021;-70
2024/03/10 11:57:22;;;;;;;15.05;8.35;;;;;;;;;;5030458;28;20256;-70
2024/03/10 11:59:49;;;;;;;19.08;10.05;;;;;;;;;;5030370;28;20457;-70
2024/03/10 12:02:14;;;;;;;19.73;10.80;;;;;;;;;;5030471;28;20586;-69
2024/03/10 12:04:39;;;;;;;16.33;7.95;;;;;;;;;;5030999;28;20115;-70
2024/03/10 12:07:08;;;;;;;11.88;7.03;;;;;;;;;;5030096;28;20025;-70
2024/03/10 12:09:34;;;;;;;14.20;6.63;;;;;;;;;;5030890;28;20025;-70
2024/03/10 12:12:10;;;;;;;13.52;7.00;;;;;;;;;;5030348;28;20389;-70
2024/03/10 12:14:41;;;;;;;10.77;4.30;;;;;;;;;;5030792;28;20163;-70
2024/03/10 12:17:11;;;;;;;12.95;6.28;;;;;;;;;;5029104;28;20052;-70
2024/03/10 12:19:36;;;;;;;11.70;7.32;;;;;;;;;;5029258;28;20104;-70
2024/03/10 12:22:02;;;;;;;13.65;7.30;;;;;;;;;;5030423;28;20595;-71
2024/03/10 12:24:28;;;;;;;12.57;6.60;;;;;;;;;;5030721;28;20644;-70
2024/03/10 12:26:54;;;;;;;12.48;6.70;;;;;;;;;;5029130;28;20014;-70
2024/03/10 12:29:21;;;;;;;10.25;6.65;;;;;;;;;;5029741;28;20025;-70
2024/03/10 12:31:48;;;;;;;12.15;6.43;;;;;;;;;;5028570;28;20022;-70
2024/03/10 12:34:13;;;;;;;11.27;6.40;;;;;;;;;;5030028;28;20569;-70
2024/03/10 12:36:38;;;;;;;11.07;5.53;;;;;;;;;;5029575;28;20044;-70
2024/03/10 12:39:11;;;;;;;9.98;6.00;;;;;;;;;;5029894;28;20256;-70
2024/03/10 12:41:36;;;;;;;11.02;6.10;;;;;;;;;;5029756;28;20037;-70
2024/03/10 12:44:01;;;;;;;11.00;6.45;;;;;;;;;;5028975;28;20025;-70
2024/03/10 12:46:28;;;;;;;14.18;6.80;;;;;;;;;;5029265;28;20049;-70
2024/03/10 12:48:53;;;;;;;11.00;6.05;;;;;;;;;;5027523;28;20068;-70
2024/03/10 12:51:19;;;;;;;11.23;6.13;;;;;;;;;;5031202;28;20025;-70
2024/03/10 12:53:45;;;;;;;14.77;6.17;;;;;;;;;;5024470;28;20453;-70
2024/03/10 12:56:12;;;;;;;9.93;6.10;;;;;;;;;;5027383;28;20028;-70
2024/03/10 12:58:38;;;;;;;11.38;6.90;;;;;;;;;;5029706;28;20075;-70
2024/03/10 13:01:04;;;;;;;12.18;6.07;;;;;;;;;;5028372;28;20022;-70
2024/03/10 13:03:29;;;;;;;9.05;5.57;;;;;;;;;;5029016;28;20021;-70
2024/03/10 13:05:55;;;;;;;8.95;5.28;;;;;;;;;;5028313;28;20028;-70
2024/03/10 13:08:21;;;;;;;8.15;4.63;;;;;;;;;;5027969;28;20017;-71
2024/03/10 13:10:46;;;;;;;10.95;6.05;;;;;;;;;;5028831;28;20034;-70
2024/03/10 13:13:12;;;;;;;10.75;5.55;;;;;;;;;;5029352;28;20021;-71
2024/03/10 13:15:37;;;;;;;9.90;5.47;;;;;;;;;;5029270;28;20021;-71
2024/03/10 13:18:10;;;;;;;6.05;3.38;;;;;;;;;;5028107;28;20048;-71
2024/03/10 13:20:36;;;;;;;7.70;4.25;;;;;;;;;;5028612;28;20021;-71
2024/03/10 13:23:02;;;;;;;9.82;4.38;;;;;;;;;;5025671;28;20056;-70
2024/03/10 13:25:27;;;;;;;7.40;4.40;;;;;;;;;;5027505;28;20496;-70
2024/03/10 13:27:52;;;;;;;10.97;4.90;;;;;;;;;;5027528;28;20055;-70
2024/03/10 13:30:18;;;;;;;7.95;4.15;;;;;;;;;;5028011;28;20569;-71
2024/03/10 13:32:44;;;;;;;10.43;5.47;;;;;;;;;;5028051;28;20523;-70
2024/03/10 13:35:10;;;;;;;9.10;4.75;;;;;;;;;;5027672;28;20104;-70
2024/03/10 13:37:35;;;;;;;3.55;2.22;;;;;;;;;;5027585;28;20104;-70
2024/03/10 13:40:04;;;;;;;8.25;4.40;;;;;;;;;;5024617;28;20675;-71
2024/03/10 13:42:30;;;;;;;10.20;4.93;;;;;;;;;;5026940;28;20035;-70
2024/03/10 13:44:55;;;;;;;6.30;3.73;;;;;;;;;;5027159;28;20029;-71
2024/03/10 13:47:20;;;;;;;9.13;4.53;;;;;;;;;;5028135;28;20263;-70
2024/03/10 13:49:45;;;;;;;8.07;4.70;;;;;;;;;;5027075;28;20244;-70
2024/03/10 13:52:14;;;;;;;10.35;4.85;;;;;;;;;;5025936;28;20077;-70
2024/03/10 13:54:41;;;;;;;8.63;5.30;;;;;;;;;;5023146;28;20032;-70
2024/03/10 13:57:06;;;;;;;3.65;2.40;;;;;;;;;;5025159;28;20030;-71
2024/03/10 13:59:35;;;;;;;8.50;4.00;;;;;;;;;;5028254;28;20076;-70
2024/03/10 14:02:00;;;;;;;9.98;5.43;;;;;;;;;;5026375;28;20033;-71
2024/03/10 14:04:26;;;;;;;11.17;4.23;;;;;;;;;;5020860;28;20029;-70
2024/03/10 14:06:51;;;;;;;9.18;4.68;;;;;;;;;;5026078;28;20325;-70
2024/03/10 14:09:17;;;;;;;9.70;5.10;;;;;;;;;;5023467;28;20017;-70
2024/03/10 14:11:42;;;;;;;9.70;5.35;;;;;;;;;;5021995;28;20025;-71
2024/03/10 14:14:07;;;;;;;10.70;5.40;;;;;;;;;;5020309;28;20041;-70
2024/03/10 14:16:32;;;;;;;8.45;4.80;;;;;;;;;;5024889;28;20022;-71
2024/03/10 14:18:58;;;;;;;10.35;4.82;;;;;;;;;;5025961;28;20017;-71
2024/03/10 14:21:25;;;;;;;10.40;4.73;;;;;;;;;;5027930;28;20021;-71
2024/03/10 14:23:50;;;;;;;8.40;4.32;;;;;;;;;;5026102;28;20650;-70
2024/03/10 14:26:18;;;;;;;7.80;4.73;;;;;;;;;;5027003;28;20014;-71
2024/03/10 14:28:44;;;;;;;10.15;4.75;;;;;;;;;;5026151;28;21036;-70
2024/03/10 14:31:10;;;;;;;12.82;6.03;;;;;;;;;;5024754;28;20020;-71
2024/03/10 14:33:38;;;;;;;10.13;5.50;;;;;;;;;;5026241;28;20017;-70
2024/03/10 14:36:03;;;;;;;12.95;5.95;;;;;;;;;;5023962;28;20021;-70
2024/03/10 14:38:29;;;;;;;11.05;5.68;;;;;;;;;;5025954;28;20036;-71
2024/03/10 14:40:55;;;;;;;9.32;5.07;;;;;;;;;;5023801;28;20057;-71
2024/03/10 14:43:20;;;;;;;6.90;4.07;;;;;;;;;;5028964;28;20053;-71
2024/03/10 14:45:45;;;;;;;8.07;4.50;;;;;;;;;;5025015;28;20278;-71
2024/03/10 14:48:10;;;;;;;10.10;4.88;;;;;;;;;;5025681;28;20256;-70
2024/03/10 14:50:37;;;;;;;9.40;4.28;;;;;;;;;;5027391;28;20014;-71